Time;durP1;ratioP1;P1;durP2;ratioP2;P2;SDS_P1;SDS_P2;PMS_P1;PMS_P2;Temp;Humidity;BMP_temperature;BMP_pressure;BME280_temperature;BME280_humidity;BME280_pressure;Samples;Min_cycle;Max_cycle;Signal;HPM_P1;HPM_P2
2020/12/02 00:01:48;;;;;;;18.05;7.63;;;;;;;;;;4963411;28;20102;-57
2020/12/02 00:04:16;;;;;;;16.33;7.10;;;;;;;;;;4975205;28;20061;-56
2020/12/02 00:06:42;;;;;;;13.38;5.85;;;;;;;;;;4981859;28;20054;-59
2020/12/02 00:09:11;;;;;;;17.45;7.47;;;;;;;;;;4974570;28;20057;-60
2020/12/02 00:11:37;;;;;;;;;;;;;;;;;;4963454;28;20051;-60
2020/12/02 00:14:05;;;;;;;16.27;6.07;;;;;;;;;;4958807;28;19945;-54
2020/12/02 00:16:31;;;;;;;18.48;7.03;;;;;;;;;;4962504;28;20063;-56
2020/12/02 00:18:57;;;;;;;15.73;6.32;;;;;;;;;;4968688;28;20089;-59
2020/12/02 00:21:25;;;;;;;18.80;7.72;;;;;;;;;;4973853;28;20110;-56
2020/12/02 00:23:52;;;;;;;17.27;7.23;;;;;;;;;;4977972;28;20034;-60
2020/12/02 00:26:19;;;;;;;15.40;6.47;;;;;;;;;;4981421;28;20280;-58
2020/12/02 00:28:45;;;;;;;15.25;6.18;;;;;;;;;;4977404;28;20050;-59
2020/12/02 00:31:11;;;;;;;17.95;6.88;;;;;;;;;;4982564;28;20038;-60
2020/12/02 00:33:37;;;;;;;21.50;7.22;;;;;;;;;;4977981;28;20079;-53
2020/12/02 00:36:03;;;;;;;17.50;7.43;;;;;;;;;;4983497;28;20038;-53
2020/12/02 00:38:31;;;;;;;17.25;6.68;;;;;;;;;;4983299;28;20043;-54
2020/12/02 00:40:58;;;;;;;17.38;6.55;;;;;;;;;;4975926;28;20136;-60
2020/12/02 00:43:26;;;;;;;15.50;6.57;;;;;;;;;;4981322;28;20042;-56
2020/12/02 00:45:52;;;;;;;17.52;7.00;;;;;;;;;;4992955;28;20039;-60
2020/12/02 00:48:19;;;;;;;14.43;6.95;;;;;;;;;;4981359;28;20072;-54
2020/12/02 00:50:46;;;;;;;16.67;6.93;;;;;;;;;;4974390;28;20051;-56
2020/12/02 00:53:13;;;;;;;20.70;7.75;;;;;;;;;;4962134;28;20179;-57
2020/12/02 00:55:44;;;;;;;17.30;7.07;;;;;;;;;;4969363;28;20121;-54
2020/12/02 00:58:14;;;;;;;15.80;6.45;;;;;;;;;;4990877;28;20065;-56
2020/12/02 01:00:41;;;;;;;17.05;6.30;;;;;;;;;;4982482;28;20050;-56
2020/12/02 01:03:12;;;;;;;16.27;7.43;;;;;;;;;;4979940;28;20052;-57
2020/12/02 01:05:39;;;;;;;17.73;6.60;;;;;;;;;;4961042;28;20034;-56
2020/12/02 01:08:19;;;;;;;16.88;6.93;;;;;;;;;;4949336;28;20064;-58
2020/12/02 01:10:48;;;;;;;15.27;6.70;;;;;;;;;;4953060;28;20051;-54
2020/12/02 01:13:14;;;;;;;23.00;7.65;;;;;;;;;;4976487;28;20046;-60
2020/12/02 01:15:40;;;;;;;17.38;7.32;;;;;;;;;;4975751;28;20105;-60
2020/12/02 01:18:24;;;;;;;18.23;6.78;;;;;;;;;;4983923;28;20047;-57
2020/12/02 01:20:54;;;;;;;16.60;6.57;;;;;;;;;;4980626;28;20035;-58
2020/12/02 01:23:21;;;;;;;16.27;6.35;;;;;;;;;;4983792;28;20047;-58
2020/12/02 01:25:50;;;;;;;18.55;7.38;;;;;;;;;;4976622;28;20064;-57
2020/12/02 01:28:19;;;;;;;15.55;5.93;;;;;;;;;;4956731;28;20051;-58
2020/12/02 01:30:45;;;;;;;15.55;6.65;;;;;;;;;;4960854;28;20051;-56
2020/12/02 01:33:14;;;;;;;14.98;6.10;;;;;;;;;;4999330;28;20067;-57
2020/12/02 01:35:42;;;;;;;16.90;6.80;;;;;;;;;;4998556;28;20166;-60
2020/12/02 01:38:08;;;;;;;14.73;6.20;;;;;;;;;;4960176;28;20054;-60
2020/12/02 01:40:35;;;;;;;15.07;6.10;;;;;;;;;;4963061;28;20105;-58
2020/12/02 01:43:04;;;;;;;14.90;6.70;;;;;;;;;;4964073;28;20068;-57
2020/12/02 01:45:31;;;;;;;15.63;5.97;;;;;;;;;;4965010;28;20058;-59
2020/12/02 01:48:18;;;;;;;17.50;6.38;;;;;;;;;;4974199;28;20066;-57
2020/12/02 01:50:46;;;;;;;17.65;6.57;;;;;;;;;;4982417;28;20049;-54
2020/12/02 01:53:17;;;;;;;21.80;6.78;;;;;;;;;;4980214;28;20035;-57
2020/12/02 01:55:47;;;;;;;18.33;6.30;;;;;;;;;;4976619;28;20079;-55
2020/12/02 01:58:16;;;;;;;15.07;5.82;;;;;;;;;;4948294;28;20058;-56
2020/12/02 02:00:43;;;;;;;15.75;6.10;;;;;;;;;;4944899;28;20072;-55
2020/12/02 02:03:12;;;;;;;19.33;7.65;;;;;;;;;;4971343;28;20062;-55
2020/12/02 02:05:38;;;;;;;;;;;;;;;;;;5020484;28;20042;-56
2020/12/02 02:08:05;;;;;;;18.38;6.47;;;;;;;;;;4997144;28;19949;-55
2020/12/02 02:10:35;;;;;;;16.73;6.82;;;;;;;;;;4988987;28;20043;-58
2020/12/02 02:13:16;;;;;;;17.75;7.28;;;;;;;;;;4982409;28;20057;-53
2020/12/02 02:15:45;;;;;;;17.70;6.50;;;;;;;;;;4982960;28;20034;-55
2020/12/02 02:18:13;;;;;;;16.17;7.00;;;;;;;;;;4985335;28;20085;-55
2020/12/02 02:20:45;;;;;;;17.10;6.25;;;;;;;;;;5002767;28;20053;-55
2020/12/02 02:23:12;;;;;;;17.38;6.45;;;;;;;;;;4995108;28;20038;-56
2020/12/02 02:25:38;;;;;;;17.83;6.65;;;;;;;;;;4982905;28;20042;-59
2020/12/02 02:28:06;;;;;;;17.95;6.55;;;;;;;;;;4978038;28;20050;-54
2020/12/02 02:30:33;;;;;;;21.60;7.15;;;;;;;;;;4982645;28;20026;-54
2020/12/02 02:32:59;;;;;;;18.67;6.63;;;;;;;;;;4983063;28;20050;-55
2020/12/02 02:35:25;;;;;;;19.35;7.05;;;;;;;;;;4977083;28;20178;-56
2020/12/02 02:37:51;;;;;;;18.83;7.53;;;;;;;;;;4982698;28;20042;-56
2020/12/02 02:40:17;;;;;;;20.67;7.18;;;;;;;;;;4994750;28;20063;-58
2020/12/02 02:42:46;;;;;;;17.25;7.28;;;;;;;;;;5018415;28;20054;-60
2020/12/02 02:45:14;;;;;;;18.00;7.63;;;;;;;;;;5003317;28;20096;-60
2020/12/02 02:47:40;;;;;;;18.75;7.43;;;;;;;;;;5000208;28;20038;-54
2020/12/02 02:50:09;;;;;;;20.42;8.13;;;;;;;;;;4998241;28;20104;-61
2020/12/02 02:52:35;;;;;;;16.40;6.80;;;;;;;;;;5001847;28;20140;-56
2020/12/02 02:55:01;;;;;;;20.25;7.63;;;;;;;;;;4991392;28;20046;-57
2020/12/02 02:57:27;;;;;;;17.55;7.00;;;;;;;;;;4984065;28;20050;-60
2020/12/02 02:59:53;;;;;;;21.58;7.18;;;;;;;;;;4984142;28;20060;-60
2020/12/02 03:02:20;;;;;;;19.67;7.22;;;;;;;;;;5001432;28;20072;-57
2020/12/02 03:04:46;;;;;;;20.55;7.45;;;;;;;;;;4993100;28;20090;-60
2020/12/02 03:07:14;;;;;;;17.05;7.25;;;;;;;;;;4982346;28;20058;-58
2020/12/02 03:09:40;;;;;;;18.77;7.47;;;;;;;;;;4984811;28;20116;-57
2020/12/02 03:12:07;;;;;;;23.88;7.35;;;;;;;;;;4995998;28;20046;-60
2020/12/02 03:14:33;;;;;;;19.75;6.88;;;;;;;;;;5000720;28;20054;-60
2020/12/02 03:16:59;;;;;;;22.30;7.60;;;;;;;;;;4964003;28;20038;-54
2020/12/02 03:19:27;;;;;;;20.45;7.75;;;;;;;;;;4979782;28;20038;-57
2020/12/02 03:21:55;;;;;;;21.30;7.05;;;;;;;;;;4992946;28;20042;-60
2020/12/02 03:24:22;;;;;;;21.23;6.88;;;;;;;;;;5000518;28;20062;-58
2020/12/02 03:26:49;;;;;;;20.27;7.22;;;;;;;;;;4984165;28;20034;-54
2020/12/02 03:29:16;;;;;;;21.85;7.97;;;;;;;;;;4982069;28;20121;-55
2020/12/02 03:31:44;;;;;;;17.87;6.70;;;;;;;;;;4981756;28;20046;-51
2020/12/02 03:34:11;;;;;;;23.65;7.47;;;;;;;;;;4982658;28;20047;-54
2020/12/02 03:36:38;;;;;;;19.92;8.10;;;;;;;;;;4978617;28;20045;-54
2020/12/02 03:39:04;;;;;;;22.33;7.70;;;;;;;;;;4982809;28;20077;-53
2020/12/02 03:41:31;;;;;;;25.17;8.40;;;;;;;;;;4985445;28;20066;-56
2020/12/02 03:43:57;;;;;;;19.70;7.40;;;;;;;;;;5001100;28;20034;-57
2020/12/02 03:46:23;;;;;;;23.00;8.23;;;;;;;;;;4994964;28;20045;-56
2020/12/02 03:48:49;;;;;;;20.45;7.22;;;;;;;;;;4981607;28;20042;-55
2020/12/02 03:51:15;;;;;;;18.58;7.22;;;;;;;;;;4980391;28;20109;-54
2020/12/02 03:53:42;;;;;;;21.88;6.65;;;;;;;;;;4983099;28;20050;-53
2020/12/02 03:56:09;;;;;;;23.70;8.55;;;;;;;;;;5001537;28;20030;-58
2020/12/02 03:58:35;;;;;;;26.05;9.20;;;;;;;;;;4998413;28;20058;-52
2020/12/02 04:01:02;;;;;;;19.85;8.23;;;;;;;;;;5000866;28;20049;-61
2020/12/02 04:03:28;;;;;;;22.45;7.82;;;;;;;;;;4981822;28;20077;-58
2020/12/02 04:05:54;;;;;;;22.75;8.05;;;;;;;;;;4981369;28;20063;-58
2020/12/02 04:08:21;;;;;;;24.40;8.57;;;;;;;;;;4977372;28;20058;-56
2020/12/02 04:10:48;;;;;;;24.20;8.88;;;;;;;;;;4982292;28;20043;-58
2020/12/02 04:13:14;;;;;;;24.17;8.82;;;;;;;;;;4978434;28;20148;-57
2020/12/02 04:15:40;;;;;;;23.75;8.63;;;;;;;;;;4981585;28;20043;-57
2020/12/02 04:18:06;;;;;;;21.38;7.40;;;;;;;;;;4987550;28;20074;-59
2020/12/02 04:20:32;;;;;;;23.45;9.23;;;;;;;;;;5000216;28;20099;-56
2020/12/02 04:22:58;;;;;;;18.65;7.40;;;;;;;;;;4996999;28;20044;-60
2020/12/02 04:25:25;;;;;;;22.08;9.18;;;;;;;;;;5000906;28;20078;-62
2020/12/02 04:27:52;;;;;;;20.23;7.20;;;;;;;;;;4996947;28;20054;-61
2020/12/02 04:30:19;;;;;;;22.58;8.50;;;;;;;;;;4981685;28;20035;-58
2020/12/02 04:32:45;;;;;;;22.17;7.63;;;;;;;;;;4979987;28;20054;-60
2020/12/02 04:35:11;;;;;;;21.50;8.13;;;;;;;;;;4998845;28;20093;-57
2020/12/02 04:37:37;;;;;;;28.83;8.05;;;;;;;;;;5000802;28;20042;-58
2020/12/02 04:40:05;;;;;;;23.13;8.15;;;;;;;;;;4979645;28;20066;-60
2020/12/02 04:42:31;;;;;;;18.10;7.78;;;;;;;;;;4996291;28;20133;-61
2020/12/02 04:44:59;;;;;;;24.77;8.68;;;;;;;;;;4983776;28;20174;-59
2020/12/02 04:47:32;;;;;;;19.98;7.45;;;;;;;;;;4980751;28;20046;-59
2020/12/02 04:49:58;;;;;;;19.42;6.88;;;;;;;;;;4978458;28;20051;-53
2020/12/02 04:52:25;;;;;;;21.67;7.35;;;;;;;;;;4985348;28;20121;-54
2020/12/02 04:54:51;;;;;;;22.75;7.70;;;;;;;;;;4992891;28;20062;-54
2020/12/02 04:57:17;;;;;;;25.10;7.97;;;;;;;;;;5004992;28;20045;-56
2020/12/02 04:59:44;;;;;;;20.35;7.95;;;;;;;;;;4996967;28;20046;-52
2020/12/02 05:02:22;;;;;;;22.33;7.28;;;;;;;;;;5001377;28;20119;-55
2020/12/02 05:04:53;;;;;;;22.67;7.57;;;;;;;;;;5015374;28;20038;-55
2020/12/02 05:07:19;;;;;;;18.20;6.82;;;;;;;;;;5002902;28;20100;-56
2020/12/02 05:09:53;;;;;;;21.42;7.93;;;;;;;;;;4995752;28;20061;-57
2020/12/02 05:12:22;;;;;;;22.30;7.40;;;;;;;;;;4982910;28;20038;-58
2020/12/02 05:14:48;;;;;;;23.08;8.00;;;;;;;;;;4983381;28;20054;-60
2020/12/02 05:17:17;;;;;;;27.65;8.30;;;;;;;;;;5003405;28;20115;-59
2020/12/02 05:19:44;;;;;;;23.13;8.05;;;;;;;;;;4999453;28;20056;-56
2020/12/02 05:22:12;;;;;;;23.20;7.65;;;;;;;;;;5002485;28;20109;-55
2020/12/02 05:24:42;;;;;;;24.15;7.72;;;;;;;;;;5002680;28;20058;-55
2020/12/02 05:27:10;;;;;;;26.90;8.27;;;;;;;;;;4992705;28;20062;-52
2020/12/02 05:29:39;;;;;;;24.38;7.95;;;;;;;;;;5001605;28;20038;-54
2020/12/02 05:32:05;;;;;;;;;;;;;;;;;;4998275;28;20085;-54
2020/12/02 05:34:33;;;;;;;22.63;7.88;;;;;;;;;;5001654;28;19918;-54
2020/12/02 05:37:01;;;;;;;24.95;9.10;;;;;;;;;;4985216;28;20074;-57
2020/12/02 05:39:32;;;;;;;27.27;8.73;;;;;;;;;;4984138;28;20042;-56
2020/12/02 05:41:59;;;;;;;25.60;8.35;;;;;;;;;;4990930;28;20038;-58
2020/12/02 05:44:30;;;;;;;31.30;8.85;;;;;;;;;;5002308;28;20046;-57
2020/12/02 05:46:58;;;;;;;26.35;8.98;;;;;;;;;;4997519;28;20061;-56
2020/12/02 05:49:33;;;;;;;23.58;8.32;;;;;;;;;;5002750;28;20046;-61
2020/12/02 05:52:01;;;;;;;23.75;8.82;;;;;;;;;;4995430;28;20054;-59
2020/12/02 05:54:27;;;;;;;24.97;8.47;;;;;;;;;;4983518;28;20083;-54
2020/12/02 05:56:54;;;;;;;22.00;8.63;;;;;;;;;;4987757;28;20295;-57
2020/12/02 05:59:22;;;;;;;27.52;8.57;;;;;;;;;;5002821;28;20034;-52
2020/12/02 06:01:48;;;;;;;23.90;8.05;;;;;;;;;;4992894;28;20073;-55
2020/12/02 06:04:16;;;;;;;32.08;9.40;;;;;;;;;;4983191;28;20031;-58
2020/12/02 06:06:52;;;;;;;30.23;8.82;;;;;;;;;;4982020;28;20042;-59
2020/12/02 06:09:20;;;;;;;26.95;8.30;;;;;;;;;;4999084;28;20121;-58
2020/12/02 06:11:46;;;;;;;27.92;8.65;;;;;;;;;;4980216;28;20057;-53
2020/12/02 06:14:22;;;;;;;35.83;10.18;;;;;;;;;;4983337;28;20057;-54
2020/12/02 06:16:48;;;;;;;25.42;9.13;;;;;;;;;;4981019;28;20042;-58
2020/12/02 06:19:20;;;;;;;29.08;9.00;;;;;;;;;;5001696;28;20042;-56
2020/12/02 06:21:48;;;;;;;26.25;8.35;;;;;;;;;;5002922;28;20123;-56
2020/12/02 06:24:21;;;;;;;30.02;8.65;;;;;;;;;;4983751;28;20078;-53
2020/12/02 06:26:48;;;;;;;29.00;8.38;;;;;;;;;;4984953;28;20058;-56
2020/12/02 06:29:24;;;;;;;28.30;8.77;;;;;;;;;;4996943;28;20064;-57
2020/12/02 06:31:53;;;;;;;32.17;10.18;;;;;;;;;;5002993;28;20042;-56
2020/12/02 06:34:19;;;;;;;;;;;;;;;;;;5000616;28;20055;-50
2020/12/02 06:37:00;;;;;;;28.77;8.13;;;;;;;;;;4981484;28;19933;-53
2020/12/02 06:39:29;;;;;;;27.23;9.20;;;;;;;;;;4992700;28;20037;-55
2020/12/02 06:41:57;;;;;;;22.30;8.32;;;;;;;;;;5011748;28;20101;-55
2020/12/02 06:44:44;;;;;;;34.15;9.30;;;;;;;;;;5004739;28;20038;-58
2020/12/02 06:47:29;;;;;;;27.33;8.77;;;;;;;;;;5004070;28;20070;-56
2020/12/02 06:50:02;;;;;;;31.02;9.82;;;;;;;;;;4981812;28;20042;-58
2020/12/02 06:52:29;;;;;;;31.30;9.73;;;;;;;;;;4982494;28;20038;-58
2020/12/02 06:55:03;;;;;;;29.33;8.85;;;;;;;;;;4979180;28;20054;-57
2020/12/02 06:57:31;;;;;;;29.55;9.20;;;;;;;;;;4982994;28;20123;-54
2020/12/02 06:59:57;;;;;;;29.98;9.13;;;;;;;;;;4977935;28;20101;-58
2020/12/02 07:02:33;;;;;;;31.17;9.15;;;;;;;;;;4982238;28;20065;-57
2020/12/02 07:05:04;;;;;;;32.55;9.60;;;;;;;;;;4988286;28;20120;-53
2020/12/02 07:10:21;;;;;;;33.78;8.88;;;;;;;;;;4991939;28;20049;-58
2020/12/02 07:12:52;;;;;;;31.40;8.98;;;;;;;;;;4999871;28;20038;-60
2020/12/02 07:15:19;;;;;;;29.60;9.20;;;;;;;;;;4996275;28;20070;-54
2020/12/02 07:17:45;;;;;;;26.50;9.00;;;;;;;;;;5000676;28;20041;-55
2020/12/02 07:20:13;;;;;;;26.67;8.32;;;;;;;;;;4996790;28;20045;-56
2020/12/02 07:22:42;;;;;;;24.50;7.20;;;;;;;;;;5001506;28;20061;-57
2020/12/02 07:25:08;;;;;;;27.98;8.23;;;;;;;;;;4995753;28;20102;-53
2020/12/02 07:27:40;;;;;;;29.80;9.20;;;;;;;;;;5016736;28;20068;-59
2020/12/02 07:30:17;;;;;;;30.83;8.02;;;;;;;;;;5009342;28;20049;-59
2020/12/02 07:32:43;;;;;;;25.08;8.25;;;;;;;;;;5000221;28;20096;-54
2020/12/02 07:35:14;;;;;;;25.90;8.70;;;;;;;;;;4996546;28;20059;-57
2020/12/02 07:37:40;;;;;;;21.38;7.53;;;;;;;;;;4999662;28;20139;-56
2020/12/02 07:40:23;;;;;;;26.65;8.10;;;;;;;;;;4989799;28;20127;-57
2020/12/02 07:42:49;;;;;;;23.73;7.20;;;;;;;;;;4999413;28;20041;-60
2020/12/02 07:45:20;;;;;;;22.40;7.22;;;;;;;;;;4998946;28;20160;-61
2020/12/02 07:47:49;;;;;;;25.55;8.05;;;;;;;;;;4999370;28;20052;-58
2020/12/02 07:50:26;;;;;;;27.02;7.97;;;;;;;;;;5003036;28;20078;-54
2020/12/02 07:52:53;;;;;;;26.90;8.25;;;;;;;;;;5001702;28;20058;-57
2020/12/02 07:55:23;;;;;;;21.70;7.03;;;;;;;;;;5007284;28;20029;-56
2020/12/02 07:57:50;;;;;;;21.60;6.95;;;;;;;;;;5018464;28;20045;-56
2020/12/02 08:00:23;;;;;;;24.27;7.50;;;;;;;;;;5002415;28;20068;-55
2020/12/02 08:02:50;;;;;;;25.60;8.27;;;;;;;;;;4995091;28;20093;-58
2020/12/02 08:05:29;;;;;;;23.98;7.65;;;;;;;;;;5000504;28;20057;-52
2020/12/02 08:07:59;;;;;;;26.08;6.22;;;;;;;;;;4996280;28;20053;-57
2020/12/02 08:10:27;;;;;;;21.95;6.82;;;;;;;;;;4999574;28;20046;-54
2020/12/02 08:12:53;;;;;;;22.60;7.28;;;;;;;;;;5011137;28;20053;-53
2020/12/02 08:15:19;;;;;;;18.52;6.40;;;;;;;;;;5020473;28;20053;-55
2020/12/02 08:18:00;;;;;;;24.40;7.50;;;;;;;;;;5033524;28;20123;-53
2020/12/02 08:20:30;;;;;;;30.55;8.40;;;;;;;;;;5020237;28;20042;-54
2020/12/02 08:22:58;;;;;;;22.60;6.95;;;;;;;;;;5006208;28;20038;-55
2020/12/02 08:25:26;;;;;;;19.88;7.40;;;;;;;;;;4998316;28;20052;-57
2020/12/02 08:27:54;;;;;;;24.42;7.82;;;;;;;;;;5003362;28;20033;-58
2020/12/02 08:30:22;;;;;;;24.13;6.63;;;;;;;;;;5022185;28;20090;-58
2020/12/02 08:32:53;;;;;;;23.95;7.70;;;;;;;;;;5010934;28;20030;-58
2020/12/02 08:35:23;;;;;;;24.60;7.15;;;;;;;;;;4999289;28;20046;-56
2020/12/02 08:37:51;;;;;;;26.23;7.90;;;;;;;;;;4994023;28;20053;-57
2020/12/02 08:40:22;;;;;;;19.60;6.60;;;;;;;;;;4996615;28;20034;-54
2020/12/02 08:42:48;;;;;;;20.38;6.65;;;;;;;;;;5003458;28;20054;-57
2020/12/02 08:45:19;;;;;;;23.15;6.78;;;;;;;;;;4991647;28;20074;-57
2020/12/02 08:47:51;;;;;;;17.65;6.05;;;;;;;;;;4998789;28;20054;-61
2020/12/02 08:50:21;;;;;;;15.13;5.68;;;;;;;;;;5001004;28;20046;-54
2020/12/02 08:52:50;;;;;;;25.20;7.18;;;;;;;;;;5018281;28;20052;-58
2020/12/02 08:55:16;;;;;;;15.93;6.13;;;;;;;;;;5017426;28;20061;-59
2020/12/02 08:57:42;;;;;;;16.80;5.50;;;;;;;;;;5037536;28;20071;-58
2020/12/02 09:00:09;;;;;;;21.20;5.78;;;;;;;;;;5017042;28;20089;-62
2020/12/02 09:02:36;;;;;;;15.93;5.38;;;;;;;;;;5039205;28;20137;-56
2020/12/02 09:05:02;;;;;;;20.38;6.65;;;;;;;;;;5016811;28;20043;-55
2020/12/02 09:07:28;;;;;;;19.60;6.68;;;;;;;;;;5022478;28;20146;-53
2020/12/02 09:09:54;;;;;;;16.60;5.72;;;;;;;;;;5018203;28;20072;-56
2020/12/02 09:12:21;;;;;;;15.65;5.70;;;;;;;;;;5022606;28;20042;-58
2020/12/02 09:14:47;;;;;;;21.55;6.93;;;;;;;;;;5016336;28;20030;-56
2020/12/02 09:17:13;;;;;;;18.38;5.65;;;;;;;;;;5020780;28;20089;-56
2020/12/02 09:19:40;;;;;;;22.45;6.07;;;;;;;;;;5024340;28;20048;-57
2020/12/02 09:22:15;;;;;;;22.52;7.43;;;;;;;;;;4986591;28;20046;-56
2020/12/02 09:24:41;;;;;;;24.05;6.90;;;;;;;;;;4987613;28;20064;-53
2020/12/02 09:27:07;;;;;;;20.13;6.13;;;;;;;;;;5019642;28;20049;-56
2020/12/02 09:29:33;;;;;;;19.15;5.90;;;;;;;;;;5016759;28;20064;-55
2020/12/02 09:32:00;;;;;;;23.38;6.82;;;;;;;;;;5018806;28;20050;-57
2020/12/02 09:34:26;;;;;;;19.40;6.93;;;;;;;;;;5013665;28;20069;-54
2020/12/02 09:36:54;;;;;;;22.33;7.32;;;;;;;;;;5017619;28;20046;-54
2020/12/02 09:39:21;;;;;;;19.98;6.57;;;;;;;;;;5039038;28;20038;-57
2020/12/02 09:42:04;;;;;;;18.65;6.13;;;;;;;;;;5007580;28;20053;-57
2020/12/02 09:44:31;;;;;;;17.65;5.75;;;;;;;;;;5024633;28;20050;-52
2020/12/02 09:46:59;;;;;;;21.10;5.93;;;;;;;;;;5022190;28;20049;-57
2020/12/02 09:49:25;;;;;;;16.13;5.50;;;;;;;;;;5025632;28;20069;-52
2020/12/02 09:51:54;;;;;;;21.30;7.10;;;;;;;;;;5020612;28;20030;-54
2020/12/02 09:54:20;;;;;;;;;;;;;;;;;;5025505;28;20025;-57
2020/12/02 09:56:46;;;;;;;16.42;5.05;;;;;;;;;;4998619;28;19921;-57
2020/12/02 09:59:12;;;;;;;15.90;5.40;;;;;;;;;;4987351;28;20050;-56
2020/12/02 10:01:50;;;;;;;22.77;6.55;;;;;;;;;;5029086;28;20122;-53
2020/12/02 10:04:34;;;;;;;20.60;6.40;;;;;;;;;;5024945;28;20037;-55
2020/12/02 10:07:17;;;;;;;16.15;5.10;;;;;;;;;;5017365;28;20137;-53
2020/12/02 10:09:51;;;;;;;18.90;5.72;;;;;;;;;;5022278;28;20120;-55
2020/12/02 10:12:21;;;;;;;18.17;5.55;;;;;;;;;;5002613;28;20094;-57
2020/12/02 10:15:00;;;;;;;17.75;6.13;;;;;;;;;;5002781;28;20061;-58
2020/12/02 10:17:35;;;;;;;16.65;5.95;;;;;;;;;;5027862;28;20096;-55
2020/12/02 10:20:09;;;;;;;17.50;5.32;;;;;;;;;;5005867;28;20091;-55
2020/12/02 10:23:04;;;;;;;18.40;5.68;;;;;;;;;;5011679;28;20059;-55
2020/12/02 10:25:40;;;;;;;22.05;6.45;;;;;;;;;;4971116;28;20038;-54
2020/12/02 10:28:13;;;;;;;17.85;5.95;;;;;;;;;;5006959;28;20030;-54
2020/12/02 10:30:43;;;;;;;18.25;6.00;;;;;;;;;;5043108;28;20070;-58
2020/12/02 10:33:16;;;;;;;20.60;6.05;;;;;;;;;;5021540;28;20094;-53
2020/12/02 10:35:45;;;;;;;16.52;5.72;;;;;;;;;;5025544;28;20096;-49
2020/12/02 10:38:14;;;;;;;17.50;5.43;;;;;;;;;;5022586;28;20056;-59
2020/12/02 10:40:43;;;;;;;19.20;6.53;;;;;;;;;;5025144;28;20048;-58
2020/12/02 10:43:15;;;;;;;17.13;5.65;;;;;;;;;;4999845;28;20045;-59
2020/12/02 10:45:41;;;;;;;17.65;6.07;;;;;;;;;;5013037;28;20045;-60
2020/12/02 10:48:21;;;;;;;17.75;5.10;;;;;;;;;;5002981;28;20098;-54
2020/12/02 10:50:47;;;;;;;18.25;6.10;;;;;;;;;;5007788;28;20044;-58
2020/12/02 10:53:14;;;;;;;13.35;5.30;;;;;;;;;;5010090;28;20030;-58
2020/12/02 10:55:41;;;;;;;18.17;5.53;;;;;;;;;;5002707;28;20038;-55
2020/12/02 10:58:10;;;;;;;21.25;5.57;;;;;;;;;;4998113;28;20076;-61
2020/12/02 11:00:36;;;;;;;20.50;5.18;;;;;;;;;;5002668;28;20037;-60
2020/12/02 11:03:06;;;;;;;15.82;5.35;;;;;;;;;;4999757;28;20069;-57
2020/12/02 11:05:32;;;;;;;19.17;5.93;;;;;;;;;;4983662;28;20123;-58
2020/12/02 11:08:00;;;;;;;17.45;5.88;;;;;;;;;;4999304;28;20038;-60
2020/12/02 11:10:31;;;;;;;17.05;5.28;;;;;;;;;;5007557;28;20070;-57
2020/12/02 11:13:03;;;;;;;10.95;4.40;;;;;;;;;;5009751;28;20054;-53
2020/12/02 11:15:33;;;;;;;17.33;4.55;;;;;;;;;;5029559;28;20041;-55
2020/12/02 11:18:06;;;;;;;15.20;5.43;;;;;;;;;;5009846;28;20041;-57
2020/12/02 11:20:37;;;;;;;12.13;4.20;;;;;;;;;;5000661;28;20060;-61
2020/12/02 11:23:06;;;;;;;15.60;4.45;;;;;;;;;;5000982;28;20128;-59
2020/12/02 11:25:36;;;;;;;11.88;4.60;;;;;;;;;;5011216;28;20118;-52
2020/12/02 11:28:03;;;;;;;16.27;4.90;;;;;;;;;;5038165;28;20034;-57
2020/12/02 11:30:31;;;;;;;14.18;5.22;;;;;;;;;;5007680;28;20119;-59
2020/12/02 11:33:26;;;;;;;18.70;4.85;;;;;;;;;;4999691;28;20042;-56
2020/12/02 11:36:10;;;;;;;15.90;4.47;;;;;;;;;;5010575;28;20156;-54
2020/12/02 11:38:40;;;;;;;11.20;4.15;;;;;;;;;;5022197;28;20034;-56
2020/12/02 11:41:09;;;;;;;14.70;4.20;;;;;;;;;;5003571;28;20069;-62
2020/12/02 11:43:40;;;;;;;12.25;4.45;;;;;;;;;;5019229;28;20042;-58
2020/12/02 11:46:09;;;;;;;14.98;4.47;;;;;;;;;;5009159;28;20061;-54
2020/12/02 11:48:37;;;;;;;13.10;4.78;;;;;;;;;;5038351;28;20046;-58
2020/12/02 11:51:09;;;;;;;13.48;4.90;;;;;;;;;;5007515;28;20046;-59
2020/12/02 11:53:40;;;;;;;11.70;4.55;;;;;;;;;;5001659;28;20044;-53
2020/12/02 11:56:07;;;;;;;13.88;4.78;;;;;;;;;;5006711;28;20169;-56
2020/12/02 11:58:33;;;;;;;12.30;4.57;;;;;;;;;;5003853;28;20138;-53
2020/12/02 12:01:04;;;;;;;11.60;4.40;;;;;;;;;;5004038;28;20045;-56
2020/12/02 12:03:34;;;;;;;16.45;5.30;;;;;;;;;;5019973;28;20049;-53
2020/12/02 12:06:07;;;;;;;15.82;5.05;;;;;;;;;;5028572;28;20046;-53
2020/12/02 12:08:40;;;;;;;18.08;5.05;;;;;;;;;;5000931;28;20042;-54
2020/12/02 12:11:08;;;;;;;16.70;5.80;;;;;;;;;;5012762;28;20053;-58
2020/12/02 12:13:37;;;;;;;19.37;6.03;;;;;;;;;;5000503;28;20046;-52
2020/12/02 12:16:11;;;;;;;15.63;5.10;;;;;;;;;;4998978;28;20386;-57
2020/12/02 12:18:42;;;;;;;15.35;5.53;;;;;;;;;;5002684;28;20054;-55
2020/12/02 12:21:11;;;;;;;14.65;4.65;;;;;;;;;;4999264;28;20131;-57
2020/12/02 12:23:49;;;;;;;14.98;5.60;;;;;;;;;;5000409;28;20068;-58
2020/12/02 12:26:15;;;;;;;15.60;4.70;;;;;;;;;;4999186;28;20123;-59
2020/12/02 12:28:41;;;;;;;15.82;5.32;;;;;;;;;;5016782;28;20116;-53
2020/12/02 12:31:13;;;;;;;15.68;5.75;;;;;;;;;;5001419;28;20052;-57
2020/12/02 12:33:43;;;;;;;15.82;5.20;;;;;;;;;;4998576;28;20046;-58
2020/12/02 12:36:13;;;;;;;16.30;6.30;;;;;;;;;;5000257;28;20070;-58
2020/12/02 12:38:45;;;;;;;12.77;5.35;;;;;;;;;;4998103;28;20066;-60
2020/12/02 12:41:15;;;;;;;14.07;4.57;;;;;;;;;;4997599;28;20041;-60
2020/12/02 12:43:44;;;;;;;15.27;5.00;;;;;;;;;;5008898;28;20050;-52
2020/12/02 12:46:15;;;;;;;15.82;5.38;;;;;;;;;;5016099;28;20042;-55
2020/12/02 12:48:43;;;;;;;22.33;5.63;;;;;;;;;;4995689;28;20042;-60
2020/12/02 12:51:11;;;;;;;17.50;5.95;;;;;;;;;;5000292;28;20034;-60
2020/12/02 12:53:40;;;;;;;17.52;5.78;;;;;;;;;;4996323;28;20066;-56
2020/12/02 12:56:11;;;;;;;20.63;6.68;;;;;;;;;;5000406;28;20074;-56
2020/12/02 12:58:40;;;;;;;14.82;5.78;;;;;;;;;;4996843;28;20127;-58
2020/12/02 13:01:09;;;;;;;19.33;6.68;;;;;;;;;;5000254;28;20046;-54
2020/12/02 13:03:36;;;;;;;;;;;;;;;;;;4997734;28;20058;-55
2020/12/02 13:06:08;;;;;;;19.90;5.93;;;;;;;;;;4998660;28;19928;-54
2020/12/02 13:08:37;;;;;;;19.83;5.75;;;;;;;;;;4997929;28;20050;-54
2020/12/02 13:11:06;;;;;;;17.70;5.97;;;;;;;;;;4999154;28;20046;-56
2020/12/02 13:13:38;;;;;;;16.48;5.97;;;;;;;;;;4999757;28;20073;-59
2020/12/02 13:16:06;;;;;;;16.90;5.70;;;;;;;;;;5002313;28;20053;-54
2020/12/02 13:18:45;;;;;;;18.63;6.45;;;;;;;;;;5003021;28;20054;-56
2020/12/02 13:21:12;;;;;;;;;;;;;;;;;;5022628;28;20053;-60
2020/12/02 13:23:41;;;;;;;17.20;5.80;;;;;;;;;;5031618;28;19928;-55
2020/12/02 13:26:15;;;;;;;18.73;6.10;;;;;;;;;;5001459;28;20046;-56
2020/12/02 13:28:45;;;;;;;16.10;6.32;;;;;;;;;;5015273;28;20061;-60
2020/12/02 13:31:18;;;;;;;18.98;6.45;;;;;;;;;;4984206;28;20052;-56
2020/12/02 13:33:45;;;;;;;20.13;6.53;;;;;;;;;;5000078;28;20040;-54
2020/12/02 13:36:18;;;;;;;17.35;6.88;;;;;;;;;;5016642;28;20077;-53
2020/12/02 13:38:45;;;;;;;15.63;6.05;;;;;;;;;;5001825;28;20049;-58
2020/12/02 13:41:16;;;;;;;17.90;6.45;;;;;;;;;;5017158;28;20038;-55
2020/12/02 13:43:43;;;;;;;19.45;6.75;;;;;;;;;;5003773;28;20126;-54
2020/12/02 13:46:10;;;;;;;16.33;6.80;;;;;;;;;;5003724;28;20054;-58
2020/12/02 13:48:36;;;;;;;17.85;6.53;;;;;;;;;;5004482;28;20088;-54
2020/12/02 13:51:11;;;;;;;19.85;6.68;;;;;;;;;;5013882;28;20033;-56
2020/12/02 13:53:40;;;;;;;17.23;7.00;;;;;;;;;;5022247;28;20095;-57
2020/12/02 13:56:08;;;;;;;17.98;6.10;;;;;;;;;;5006313;28;20045;-55
2020/12/02 13:58:42;;;;;;;18.65;7.15;;;;;;;;;;4990175;28;20035;-49
2020/12/02 14:01:17;;;;;;;17.40;6.35;;;;;;;;;;5001117;28;20034;-53
2020/12/02 14:03:52;;;;;;;18.83;7.10;;;;;;;;;;5022426;28;20069;-58
2020/12/02 14:06:24;;;;;;;20.83;6.68;;;;;;;;;;5033334;28;20053;-55
2020/12/02 14:08:50;;;;;;;20.50;7.40;;;;;;;;;;5038769;28;20073;-57
2020/12/02 14:11:22;;;;;;;18.88;7.43;;;;;;;;;;5024120;28;20061;-57
2020/12/02 14:13:48;;;;;;;19.15;6.97;;;;;;;;;;5037798;28;20049;-59
2020/12/02 14:16:14;;;;;;;20.25;7.28;;;;;;;;;;5012712;28;20053;-58
2020/12/02 14:18:40;;;;;;;20.83;6.80;;;;;;;;;;5002959;28;20042;-60
2020/12/02 14:21:07;;;;;;;16.52;6.75;;;;;;;;;;5002374;28;20086;-56
2020/12/02 14:23:35;;;;;;;19.38;6.82;;;;;;;;;;5037297;28;20075;-61
2020/12/02 14:26:01;;;;;;;18.95;6.88;;;;;;;;;;5035237;28;20046;-60
2020/12/02 14:28:29;;;;;;;15.63;6.65;;;;;;;;;;5038559;28;20084;-59
2020/12/02 14:30:56;;;;;;;19.65;7.45;;;;;;;;;;5021663;28;20049;-57
2020/12/02 14:33:22;;;;;;;18.10;6.65;;;;;;;;;;5018543;28;20070;-53
2020/12/02 14:35:48;;;;;;;22.80;6.35;;;;;;;;;;5037522;28;20045;-56
2020/12/02 14:38:15;;;;;;;17.25;6.85;;;;;;;;;;5018967;28;20038;-58
2020/12/02 14:40:42;;;;;;;18.50;6.38;;;;;;;;;;5022895;28;20120;-56
2020/12/02 14:43:11;;;;;;;21.60;5.97;;;;;;;;;;5000046;28;20074;-60
2020/12/02 14:45:37;;;;;;;;;;;;;;;;;;5004948;28;20053;-55
2020/12/02 14:48:04;;;;;;;16.17;6.13;;;;;;;;;;5009385;28;19937;-57